Latest Weather Observations for Parafield

IDS60901

Issued at 10:55 am CST Saturday 23 August 2014 (issued every 10 minutes, with the page automatically refreshed every 10 minutes)

About weather observations | Map of Adelaide area stations | Latest observations for Adelaide area | Other Formats
Station Details ID: 023013 Name: PARAFIELD AIRPORT Lat: -34.80 Lon: 138.63 Height: 9.5 m
Data from the previous 72 hours. | See also: Recent months at Parafield
Date/Time
CST
Tmp

°C
App
Tmp
°C
Dew
Point
°C
Rel
Hum
%
Delta-T

°C
Wind Press
QNH
hPa
Press
MSL
hPa
Rain
since
9 am
mm
Dir
 
Spd
km/h
Gust
km/h
Spd
kts
Gust
kts
23/10:30am 15.4 10.5 8.4 63 3.5 WNW 24 35 13 19 1024.7 1024.7 0.0
23/10:00am 15.9 11.1 5.8 51 4.9 NNW 20 30 11 16 1024.4 1024.4 0.0
23/09:30am 16.3 11.5 5.6 49 5.1 N 20 26 11 14 1024.1 1024.1 0.0
23/09:00am 14.6 9.8 5.4 54 4.3 N 20 28 11 15 1023.8 1023.8 0.0
23/08:30am 14.5 9.2 5.0 53 4.4 N 22 30 12 16 1023.4 1023.4 0.0
23/08:00am 15.1 11.5 5.0 51 4.7 N 13 19 7 10 1023.4 1023.4 0.0
23/07:30am 15.6 11.7 5.2 50 4.9 N 15 22 8 12 1022.9 1022.9 0.0
23/07:00am 15.2 9.8 4.6 49 4.9 N 22 30 12 16 1022.3 1022.3 0.0
23/06:30am 15.1 9.6 4.2 48 5.0 N 22 30 12 16 1022.0 1022.0 0.0
23/06:00am 15.7 10.7 4.4 47 5.3 NNE 20 37 11 20 1021.5 1021.6 0.0
23/05:30am 16.2 10.3 3.9 44 5.7 NNE 24 32 13 17 1021.2 1021.3 0.0
23/05:00am 16.3 10.4 4.0 44 5.7 NE 24 33 13 18 1021.0 1021.1 0.0
23/04:30am 16.0 11.1 4.1 45 5.5 N 19 28 10 15 1021.4 1021.5 0.0
23/04:00am 15.7 9.8 4.1 46 5.4 NNE 24 37 13 20 1021.0 1021.1 0.0
23/03:30am 15.9 9.6 4.0 45 5.5 N 26 35 14 19 1021.3 1021.4 0.0
23/03:00am 15.5 9.7 4.2 47 5.2 NNE 24 32 13 17 1021.5 1021.6 0.0
23/02:30am 14.5 9.4 4.2 50 4.7 NNE 20 26 11 14 1022.1 1022.1 0.0
23/02:00am 13.8 8.9 3.9 51 4.5 N 19 24 10 13 1022.5 1022.5 0.0
23/01:30am 14.5 9.5 3.6 48 4.9 N 19 24 10 13 1022.7 1022.7 0.0
23/01:00am 14.7 9.6 3.2 46 5.2 NNE 19 26 10 14 1022.4 1022.4 0.0
23/12:30am 15.2 10.2 3.4 45 5.3 NNE 19 28 10 15 1022.5 1022.5 0.0
23/12:00am 15.3 10.1 3.8 46 5.3 NE 20 28 11 15 1022.6 1022.6 0.0
 
Date/Time
CST
Tmp

°C
App
Tmp
°C
Dew
Point
°C
Rel
Hum
%
Delta-T

°C
Wind Press
QNH
hPa
Press
MSL
hPa
Rain
since
9 am
mm
Dir
 
Spd
km/h
Gust
km/h
Spd
kts
Gust
kts
22/11:30pm 15.4 10.3 3.9 46 5.3 NNE 20 28 11 15 1022.4 1022.4 0.0
22/11:00pm 13.7 8.6 2.9 48 4.8 NE 19 22 10 12 1022.4 1022.4 0.0
22/10:30pm 13.8 9.5 3.0 48 4.8 NNE 15 20 8 11 1022.9 1022.9 0.0
22/10:00pm 14.3 9.1 2.5 45 5.2 NE 19 22 10 12 1023.0 1023.0 0.0
22/09:30pm 14.5 9.3 2.7 45 5.2 NE 19 20 10 11 1023.3 1023.3 0.0
22/09:00pm 14.1 9.3 2.4 45 5.1 NE 17 20 9 11 1023.5 1023.5 0.0
22/08:30pm 14.3 9.1 2.5 45 5.2 NE 19 24 10 13 1023.2 1023.2 0.0
22/08:00pm 13.9 9.1 2.5 46 5.0 NE 17 22 9 12 1023.2 1023.2 0.0
22/07:30pm 13.2 8.5 3.0 50 4.5 NE 17 22 9 12 1023.1 1023.1 0.0
22/07:00pm 12.9 9.4 3.6 53 4.2 NE 11 15 6 8 1023.2 1023.2 0.0
22/06:30pm 14.1 10.2 3.6 49 4.7 NE 13 17 7 9 1023.0 1023.0 0.0
22/06:00pm 15.2 11.0 4.0 47 5.1 NE 15 19 8 10 1022.8 1022.8 0.0
22/05:30pm 17.0 12.5 4.0 42 6.0 NE 17 22 9 12 1022.7 1022.7 0.0
22/05:00pm 18.4 13.5 4.2 39 6.7 NNE 19 26 10 14 1022.6 1022.6 0.0
22/04:30pm 19.2 14.0 3.4 35 7.4 NNE 20 26 11 14 1022.5 1022.5 0.0
22/04:00pm 19.8 14.9 3.9 35 7.6 N 19 26 10 14 1022.5 1022.5 0.0
22/03:30pm 20.2 15.6 3.9 34 7.8 NNE 17 22 9 12 1022.5 1022.5 0.0
22/03:00pm 20.3 15.4 3.9 34 7.8 NNE 19 28 10 15 1022.5 1022.5 0.0
22/02:30pm 20.5 16.3 5.7 38 7.3 NE 17 28 9 15 1022.8 1022.8 0.0
22/02:00pm 20.5 15.6 5.3 37 7.5 NE 20 28 11 15 1023.2 1023.2 0.0
22/01:30pm 20.6 15.4 5.4 37 7.5 NE 22 32 12 17 1023.6 1023.6 0.0
22/01:00pm 20.3 15.0 4.8 36 7.5 NE 22 30 12 16 1024.0 1024.0 0.0
22/12:30pm 19.8 13.5 3.9 35 7.5 N 26 37 14 20 1024.5 1024.5 0.0
22/12:00pm 19.7 13.1 4.2 36 7.4 N 28 37 15 20 1025.1 1025.1 0.0
22/11:30am 19.6 13.4 4.1 36 7.4 NNE 26 35 14 19 1025.6 1025.6 0.0
22/11:00am 19.4 13.4 5.5 40 6.8 NE 26 35 14 19 1025.9 1025.9 0.0
22/10:30am 18.9 12.0 4.7 39 6.8 NNE 30 43 16 23 1026.3 1026.3 0.0
22/10:00am 18.3 11.6 3.4 37 6.9 NNE 28 37 15 20 1026.5 1026.5 0.0
22/09:30am 17.3 10.2 3.6 40 6.3 NNE 30 41 16 22 1026.7 1026.7 0.0
22/09:00am 17.0 11.2 4.3 43 5.9 NNE 24 32 13 17 1026.6 1026.6 0.0
22/08:30am 16.0 11.0 4.4 46 5.4 NE 20 28 11 15 1026.6 1026.6 0.0
22/08:00am 15.1 9.9 3.6 46 5.2 NE 20 26 11 14 1026.4 1026.4 0.0
22/07:30am 14.1 9.5 3.8 50 4.7 NE 17 24 9 13 1026.2 1026.2 0.0
22/07:00am 11.6 7.0 3.6 58 3.5 NE 17 20 9 11 1025.6 1025.6 0.0
22/06:30am 12.1 7.5 3.6 56 3.8 NE 17 20 9 11 1025.1 1025.1 0.0
22/06:00am 12.7 7.8 4.2 56 3.8 NE 19 24 10 13 1024.8 1024.8 0.0
22/05:30am 12.7 7.9 4.4 57 3.8 NE 19 22 10 12 1024.6 1024.6 0.0
22/05:00am 13.1 8.3 4.5 56 3.9 NE 19 26 10 14 1024.4 1024.4 0.0
22/04:30am 12.6 7.8 4.6 58 3.6 NE 19 24 10 13 1024.4 1024.4 0.0
22/04:00am 12.4 8.0 4.6 59 3.6 NE 17 20 9 11 1024.3 1024.3 0.0
22/03:30am 12.6 8.2 4.8 59 3.6 NE 17 24 9 13 1024.3 1024.3 0.0
22/03:00am 13.0 9.4 4.9 58 3.7 NNE 13 17 7 9 1024.3 1024.3 0.0
22/02:30am 12.7 8.7 5.1 60 3.5 NE 15 20 8 11 1024.6 1024.6 0.0
22/02:00am 12.8 8.5 5.2 60 3.5 NE 17 20 9 11 1025.0 1025.0 0.0
22/01:30am 12.9 8.6 5.3 60 3.5 NE 17 24 9 13 1025.2 1025.2 0.0
22/01:00am 13.4 9.1 5.3 58 3.8 NE 17 22 9 12 1025.3 1025.3 0.0
22/12:30am 13.9 9.1 5.5 57 3.9 ENE 20 26 11 14 1025.4 1025.4 0.0
22/12:00am 13.4 8.8 5.6 59 3.6 NE 19 24 10 13 1025.4 1025.4 0.0
 
Date/Time
CST
Tmp

°C
App
Tmp
°C
Dew
Point
°C
Rel
Hum
%
Delta-T

°C
Wind Press
QNH
hPa
Press
MSL
hPa
Rain
since
9 am
mm
Dir
 
Spd
km/h
Gust
km/h
Spd
kts
Gust
kts
21/11:30pm 13.2 8.9 5.4 59 3.6 ENE 17 20 9 11 1025.5 1025.5 0.0
21/11:00pm 13.1 8.9 5.5 60 3.6 ENE 17 22 9 12 1025.5 1025.5 0.0
21/10:30pm 13.3 8.7 5.7 60 3.6 ENE 19 24 10 13 1025.5 1025.5 0.0
21/10:00pm 13.4 9.2 5.8 60 3.6 ENE 17 22 9 12 1025.6 1025.6 0.0
21/09:30pm 13.2 9.1 6.1 62 3.3 ENE 17 20 9 11 1025.6 1025.6 0.0
21/09:00pm 12.0 9.3 5.6 65 3.0 ENE 9 15 5 8 1025.6 1025.6 0.0
21/08:30pm 13.0 8.9 6.1 63 3.2 ENE 17 20 9 11 1025.6 1025.6 0.0
21/08:00pm 12.9 8.9 6.5 65 3.1 ENE 17 20 9 11 1025.3 1025.3 0.0
21/07:30pm 12.4 8.8 6.7 68 2.7 ENE 15 19 8 10 1025.2 1025.2 0.0
21/07:00pm 12.6 10.6 7.1 69 2.7 ENE 7 9 4 5 1025.2 1025.2 0.0
21/06:30pm 13.1 10.9 7.8 70 2.6 E 9 11 5 6 1025.0 1025.0 0.0
21/06:00pm 13.2 10.8 7.2 67 2.9 E 9 13 5 7 1024.8 1024.8 0.0
21/05:30pm 14.7 11.2 7.3 61 3.6 NE 15 19 8 10 1024.4 1024.4 0.0
21/05:00pm 16.8 13.8 7.7 55 4.6 NNE 13 17 7 9 1024.2 1024.2 0.0
21/04:30pm 17.7 13.9 7.7 52 5.0 NNE 17 20 9 11 1023.9 1023.9 0.0
21/04:00pm 17.8 14.9 8.1 53 5.0 NNE 13 20 7 11 1023.7 1023.7 0.0
21/03:30pm 17.6 15.4 7.9 53 4.9 E 9 17 5 9 1023.8 1023.8 0.0
21/03:00pm 17.5 13.8 7.8 53 4.9 NNE 17 26 9 14 1024.1 1024.1 0.0
21/02:30pm 17.4 14.2 8.3 55 4.6 N 15 20 8 11 1024.1 1024.1 0.0
21/02:00pm 18.8 15.8 7.9 49 5.6 NNE 13 20 7 11 1024.2 1024.2 0.0
21/01:30pm 18.4 15.4 7.8 50 5.4 NNE 13 19 7 10 1024.4 1024.4 0.0
21/01:00pm 18.1 14.5 6.6 47 5.7 NNE 15 22 8 12 1024.8 1024.8 0.0
21/12:30pm 18.2 15.1 7.3 49 5.5 NE 13 26 7 14 1025.2 1025.2 0.0
21/12:00pm 17.7 13.8 6.9 49 5.4 NNE 17 22 9 12 1025.7 1025.7 0.0
21/11:30am 17.4 13.5 6.9 50 5.2 NNE 17 22 9 12 1026.1 1026.1 0.0
21/11:00am 16.6 12.0 5.6 48 5.3 NNE 19 22 10 12 1026.5 1026.5 0.0
21/10:30am 16.7 13.2 7.4 54 4.6 NE 15 24 8 13 1026.8 1026.8 0.0
21/10:00am 15.6 11.4 5.5 51 4.8 NE 17 22 9 12 1027.0 1027.0 0.0
21/09:30am 14.6 10.4 5.9 56 4.1 NE 17 24 9 13 1027.3 1027.3 0.0
21/09:00am 13.7 10.3 5.8 59 3.7 NE 13 19 7 10 1027.4 1027.4 0.0
21/08:30am 12.0 11.1 6.1 67 2.8 CALM 0 6 0 3 1027.5 1027.5 0.0
21/08:00am 8.4 6.9 5.0 79 1.5 W 2 6 1 3 1027.3 1027.3 0.0
21/07:30am 5.8 3.6 3.3 84 1.0 NNW 4 6 2 3 1027.2 1027.2 0.0
21/07:00am 4.3 2.7 2.2 86 0.8 CALM 0 0 0 0 1027.0 1027.0 0.0
21/06:30am 4.2 1.8 1.9 85 0.9 NNW 4 7 2 4 1026.8 1026.8 0.0
21/06:00am 5.0 2.0 2.0 81 1.2 NNW 7 9 4 5 1026.6 1026.6 0.0
21/05:30am 5.9 3.0 2.4 78 1.4 W 7 9 4 5 1026.4 1026.4 0.0
21/05:00am 8.2 5.4 3.3 71 2.1 NE 7 9 4 5 1026.5 1026.5 0.0
21/04:30am 6.6 3.7 2.5 75 1.7 W 7 9 4 5 1026.4 1026.4 0.0
21/04:00am 8.9 4.9 3.1 67 2.5 E 13 22 7 12 1026.3 1026.3 0.0
21/03:30am 8.8 4.1 3.0 67 2.5 E 17 24 9 13 1026.3 1026.3 0.0
21/03:00am 9.1 4.0 3.1 66 2.6 E 19 26 10 14 1026.3 1026.3 0.0
21/02:30am 9.1 4.0 3.1 66 2.6 E 19 24 10 13 1026.4 1026.4 0.0
21/02:00am 9.3 4.1 3.3 66 2.6 E 20 26 11 14 1026.6 1026.6 0.0
21/01:30am 9.2 4.1 3.2 66 2.6 E 19 28 10 15 1026.7 1026.7 0.0
21/01:00am 9.1 4.4 3.1 66 2.6 E 17 26 9 14 1026.8 1026.8 0.0
21/12:30am 9.4 4.1 3.2 65 2.6 E 20 28 11 15 1026.8 1026.8 0.0
21/12:00am 9.6 3.9 3.1 64 2.8 ESE 22 28 12 15 1026.8 1026.8 0.0
 
Date/Time
CST
Tmp

°C
App
Tmp
°C
Dew
Point
°C
Rel
Hum
%
Delta-T

°C
Wind Press
QNH
hPa
Press
MSL
hPa
Rain
since
9 am
mm
Dir
 
Spd
km/h
Gust
km/h
Spd
kts
Gust
kts
20/11:30pm 9.6 3.6 3.1 64 2.8 ESE 24 33 13 18 1026.8 1026.8 0.0
20/11:00pm 9.7 4.4 3.2 64 2.8 ESE 20 30 11 16 1026.9 1026.9 0.0
20/10:30pm 9.5 4.4 2.8 63 2.8 ESE 19 24 10 13 1026.9 1026.9 0.0
20/10:00pm 9.7 4.4 3.0 63 2.9 ESE 20 28 11 15 1027.0 1027.0 0.0
20/09:30pm 9.5 4.4 3.3 65 2.7 ESE 19 26 10 14 1027.1 1027.1 0.0
20/09:00pm 9.7 4.7 3.7 66 2.6 ESE 19 26 10 14 1027.0 1027.0 0.0
20/08:30pm 9.5 4.9 3.5 66 2.6 ESE 17 24 9 13 1026.8 1026.8 0.0
20/08:00pm 9.2 5.4 3.8 69 2.4 ESE 13 19 7 10 1027.0 1027.0 0.0
20/07:30pm 9.3 5.5 3.9 69 2.3 SE 13 15 7 8 1026.9 1026.9 0.0
20/07:00pm 10.6 6.1 4.3 65 2.8 ESE 17 22 9 12 1026.8 1026.8 0.0
20/06:30pm 10.4 6.8 5.0 69 2.4 SE 13 17 7 9 1026.6 1026.6 0.0
20/06:00pm 10.9 7.7 5.2 68 2.6 ESE 11 15 6 8 1026.4 1026.4 0.0
20/05:30pm 11.3 9.0 5.6 68 2.6 SSW 7 9 4 5 1026.3 1026.3 0.0
20/05:00pm 12.8 9.8 6.2 64 3.1 SSW 11 13 6 7 1026.2 1026.2 0.0
20/04:30pm 13.6 10.1 5.3 57 3.9 SSW 13 17 7 9 1026.2 1026.2 0.0
20/04:00pm 14.0 10.4 5.1 55 4.2 SW 13 17 7 9 1026.1 1026.1 0.0
20/03:30pm 14.5 11.0 5.3 54 4.3 SW 13 19 7 10 1026.1 1026.1 0.0
20/03:00pm 14.1 9.7 4.9 54 4.3 SW 17 22 9 12 1026.2 1026.2 0.0
20/02:30pm 14.4 10.3 6.3 58 3.9 W 17 22 9 12 1026.2 1026.2 0.0
20/02:00pm 13.5 9.0 5.9 60 3.6 W 19 24 10 13 1026.2 1026.2 0.0
20/01:30pm 13.6 9.5 6.2 61 3.5 W 17 22 9 12 1026.2 1026.2 0.0
20/01:00pm 14.0 9.9 6.4 60 3.6 WSW 17 22 9 12 1026.5 1026.5 0.0
20/12:30pm 15.5 12.9 6.0 53 4.5 ESE 9 11 5 6 1026.9 1026.9 0.0
20/12:00pm 15.1 12.6 3.9 47 5.1 NE 6 11 3 6 1027.4 1027.4 0.0
20/11:30am 13.7 10.7 4.3 53 4.3 ENE 9 13 5 7 1027.8 1027.8 0.0
20/11:00am 14.2 11.0 5.3 55 4.2 ENE 11 17 6 9 1027.9 1027.9 0.0

Latest Capital City Observations: Canberra | Sydney | Melbourne | Brisbane | Adelaide | Perth | Hobart | Darwin

Other Formats:

Comma delimited format used in spreadsheet applications
http://www.bom.gov.au/fwo/IDS60901/IDS60901.95677.axf

JavaScript Object Notation format (JSON) in row-major order
http://www.bom.gov.au/fwo/IDS60901/IDS60901.95677.json